地図

経路データ

SID SEASON NUMBER BASIN SUBBASIN NAME ISO_TIME NATURE LAT LON WMO_WIND WMO_PRES WMO_AGENCY TRACK_TYPE DIST2LAND LANDFALL IFLAG USA_AGENCY USA_ATCF_ID USA_LAT USA_LON USA_RECORD USA_STATUS USA_WIND USA_PRES USA_SSHS USA_R34_NE USA_R34_SE USA_R34_SW USA_R34_NW USA_R50_NE USA_R50_SE USA_R50_SW USA_R50_NW USA_R64_NE USA_R64_SE USA_R64_SW USA_R64_NW USA_POCI USA_ROCI USA_RMW USA_EYE TOKYO_LAT TOKYO_LON TOKYO_GRADE TOKYO_WIND TOKYO_PRES TOKYO_R50_DIR TOKYO_R50_LONG TOKYO_R50_SHORT TOKYO_R30_DIR TOKYO_R30_LONG TOKYO_R30_SHORT TOKYO_LAND CMA_LAT CMA_LON CMA_CAT CMA_WIND CMA_PRES HKO_LAT HKO_LON HKO_CAT HKO_WIND HKO_PRES NEWDELHI_LAT NEWDELHI_LON NEWDELHI_GRADE NEWDELHI_WIND NEWDELHI_PRES NEWDELHI_CI NEWDELHI_DP NEWDELHI_POCI REUNION_LAT REUNION_LON REUNION_TYPE REUNION_WIND REUNION_PRES REUNION_TNUM REUNION_CI REUNION_RMW REUNION_R34_NE REUNION_R34_SE REUNION_R34_SW REUNION_R34_NW REUNION_R50_NE REUNION_R50_SE REUNION_R50_SW REUNION_R50_NW REUNION_R64_NE REUNION_R64_SE REUNION_R64_SW REUNION_R64_NW BOM_LAT BOM_LON BOM_TYPE BOM_WIND BOM_PRES BOM_TNUM BOM_CI BOM_RMW BOM_R34_NE BOM_R34_SE BOM_R34_SW BOM_R34_NW BOM_R50_NE BOM_R50_SE BOM_R50_SW BOM_R50_NW BOM_R64_NE BOM_R64_SE BOM_R64_SW BOM_R64_NW BOM_ROCI BOM_POCI BOM_EYE BOM_POS_METHOD BOM_PRES_METHOD NADI_LAT NADI_LON NADI_CAT NADI_WIND NADI_PRES WELLINGTON_LAT WELLINGTON_LON WELLINGTON_WIND WELLINGTON_PRES DS824_LAT DS824_LON DS824_STAGE DS824_WIND DS824_PRES TD9636_LAT TD9636_LON TD9636_STAGE TD9636_WIND TD9636_PRES TD9635_LAT TD9635_LON TD9635_WIND TD9635_PRES TD9635_ROCI NEUMANN_LAT NEUMANN_LON NEUMANN_CLASS NEUMANN_WIND NEUMANN_PRES MLC_LAT MLC_LON MLC_CLASS MLC_WIND MLC_PRES USA_GUST BOM_GUST BOM_GUST_PER REUNION_GUST REUNION_GUST_PER USA_SEAHGT USA_SEARAD_NE USA_SEARAD_SE USA_SEARAD_SW USA_SEARAD_NW STORM_SPEED STORM_DIR
1945060S14122 1945 13 SI WA NOT_NAMED 1945-02-28 23:00:00 NR -13.9000 122.000 main 306 306 __________O___ -1 -13.9000 122.000 7 1 0
1945060S14122 1945 13 SI WA NOT_NAMED 1945-03-01 00:00:00 TS -13.9147 122.010 main 306 299 O________OP___ jtwc_sh SH081945 -13.9000 122.000 -1 -13.9000 122.000 TC -13.9294 122.020 7 6 238
1945060S14122 1945 13 SI WA NOT_NAMED 1945-03-01 01:00:00 TS -14.0033 121.834 992 bom main 303 293 P_____O__PP___ SH081945 -13.9377 122.038 -1 -14.4000 120.400 992 -13.9377 122.038 TC -13.9587 122.039 7 5 229
1945060S14122 1945 13 SI WA NOT_NAMED 1945-03-01 03:00:00 TS -14.0827 121.810 main 293 283 P_____P__PP___ SH081945 -14.0100 122.110 -1 -14.4341 120.369 -14.0100 122.110 TC -14.0159 122.080 7 2 0
1945060S14122 1945 13 SI WA NOT_NAMED 1945-03-01 06:00:00 TS -14.1762 121.811 main 283 273 O_____P__OP___ jtwc_sh SH081945 -14.1000 122.200 -1 -14.4868 120.322 -14.1000 122.200 TC -14.0957 122.149 7 2 198
1945060S14122 1945 13 SI WA NOT_NAMED 1945-03-01 09:00:00 TS -14.2555 121.756 main 273 273 P_____P__PP___ SH081945 -14.1575 122.258 -1 -14.5432 120.275 -14.1575 122.258 TC -14.1637 122.233 7 1 198
1945060S14122 1945 13 SI WA NOT_NAMED 1945-03-01 11:00:00 TS -14.2890 121.779 main 273 273 P_____P__PO___ SH081945 -14.1860 122.286 -1 -14.5840 120.243 -14.1860 122.286 TC -14.2000 122.300 7 1 136
1945060S14122 1945 13 SI WA NOT_NAMED 1945-03-01 12:00:00 TS -14.3051 121.791 main 273 262 O_____P__OP___ jtwc_sh SH081945 -14.2000 122.300 -1 -14.6056 120.227 -14.2000 122.300 TC -14.2150 122.337 7 1 140
1945060S14122 1945 13 SI WA NOT_NAMED 1945-03-01 15:00:00 TS -14.3572 121.835 main 262 258 P_____P__PP___ SH081945 -14.2500 122.358 -1 -14.6762 120.177 -14.2500 122.358 TC -14.2525 122.447 7 1 149
1945060S14122 1945 13 SI WA NOT_NAMED 1945-03-01 18:00:00 TS -14.4120 121.860 main 258 248 O_____P__OP___ jtwc_sh SH081945 -14.3000 122.400 -1 -14.7573 120.127 -14.3000 122.400 TC -14.2909 122.515 7 1 157
1945060S14122 1945 13 SI WA NOT_NAMED 1945-03-01 21:00:00 TS -14.4668 121.875 main 248 248 P_____P__PP___ SH081945 -14.3349 122.467 -1 -14.8512 120.074 -14.3349 122.467 TC -14.3461 122.491 7 1 185
1945060S14122 1945 13 SI WA NOT_NAMED 1945-03-01 23:00:00 TS -14.5164 121.833 main 253 248 P_____P__PO___ SH081945 -14.3718 122.448 -1 -14.9219 120.037 -14.3718 122.448 TC -14.4000 122.400 7 4 240
1945060S14122 1945 13 SI WA NOT_NAMED 1945-03-02 00:00:00 TS -14.5757 121.681 main 248 248 O_____P__OP___ jtwc_sh SH081945 -14.4000 122.400 -1 -14.9600 120.019 -14.4000 122.400 TC -14.4366 122.326 7 10 248
1945060S14122 1945 13 SI WA NOT_NAMED 1945-03-02 01:00:00 TS -14.6397 121.526 985 bom main 260 251 P_____O__PP___ SH081945 -14.4386 122.320 -1 -15.0000 120.000 985 -14.4386 122.320 TC -14.4772 122.235 7 9 245
1945060S14122 1945 13 SI WA NOT_NAMED 1945-03-02 03:00:00 TS -14.7542 121.283 main 256 256 P_____P__PP___ SH081945 -14.5350 122.083 -1 -15.0858 119.961 -14.5350 122.083 TC -14.5685 122.008 7 8 244
1945060S14122 1945 13 SI WA NOT_NAMED 1945-03-02 06:00:00 TS -14.9281 120.911 main 278 270 O_____P__OP___ jtwc_sh SH081945 -14.7000 121.600 -1 -15.2276 119.897 -14.7000 121.600 TC -14.7235 121.575 7 8 245
1945060S14122 1945 13 SI WA NOT_NAMED 1945-03-02 09:00:00 TS -15.0814 120.571 main 286 286 P_____P__PP___ SH081945 -14.8500 121.080 -1 -15.3823 119.822 -14.8500 121.080 TC -14.8894 121.065 7 8 246
1945060S14122 1945 13 SI WA NOT_NAMED 1945-03-02 11:00:00 TS -15.1850 120.320 main 301 301 P_____P__PO___ SH081945 -14.9500 120.697 -1 -15.4911 119.762 -14.9500 120.697 TC -15.0000 120.700 7 8 247
1945060S14122 1945 13 SI WA NOT_NAMED 1945-03-02 12:00:00 TS -15.2363 120.192 main 309 309 O_____P__OP___ jtwc_sh SH081945 -15.0000 120.500 -1 -15.5468 119.729 -15.0000 120.500 TC -15.0514 120.519 7 8 248
1945060S14122 1945 13 SI WA NOT_NAMED 1945-03-02 15:00:00 TS -15.3915 119.785 main 327 327 P_____P__PP___ SH081945 -15.1500 119.892 -1 -15.7183 119.614 -15.1500 119.892 TC -15.2061 119.938 7 9 249
1945060S14122 1945 13 SI WA NOT_NAMED 1945-03-02 18:00:00 TS -15.5476 119.368 main 357 357 O_____P__OP___ jtwc_sh SH081945 -15.3000 119.300 -1 -15.8936 119.472 -15.3000 119.300 TC -15.3588 119.335 7 9 248
1945060S14122 1945 13 SI WA NOT_NAMED 1945-03-02 21:00:00 TS -15.7033 118.966 main 385 385 P_____P__PP___ SH081945 -15.4499 118.770 -1 -16.0696 119.296 -15.4499 118.770 TC -15.5061 118.753 7 8 248
1945060S14122 1945 13 SI WA NOT_NAMED 1945-03-02 23:00:00 TS -15.8064 118.709 main 409 409 P_____P__PO___ SH081945 -15.5499 118.450 -1 -16.1858 119.157 -15.5499 118.450 TC -15.6000 118.400 7 8 247
1945060S14122 1945 13 SI WA NOT_NAMED 1945-03-03 00:00:00 TS -15.8571 118.586 main 414 414 O_____P__OP___ jtwc_sh SH081945 -15.6000 118.300 -1 -16.2432 119.081 -15.6000 118.300 TC -15.6422 118.248 7 8 247
1945060S14122 1945 13 SI WA NOT_NAMED 1945-03-03 01:00:00 TS -15.9074 118.464 980 bom main 424 424 P_____O__PP___ SH081945 -15.6499 118.153 -1 -16.3000 119.000 980 -15.6499 118.153 TC -15.6832 118.104 7 8 247
1945060S14122 1945 13 SI WA NOT_NAMED 1945-03-03 03:00:00 TS -16.0075 118.221 main 450 450 P_____P__PP___ SH081945 -15.7499 117.877 -1 -16.4126 118.805 -15.7499 117.877 TC -15.7628 117.836 7 8 246
1945060S14122 1945 13 SI WA NOT_NAMED 1945-03-03 06:00:00 TS -16.1578 117.864 main 454 453 O_____P__OP___ jtwc_sh SH081945 -15.9000 117.500 -1 -16.5816 118.474 -15.9000 117.500 TC -15.8814 117.471 7 7 246
1945060S14122 1945 13 SI WA NOT_NAMED 1945-03-03 09:00:00 TS -16.3088 117.509 main 457 451 P_____P__PP___ SH081945 -16.0499 117.150 -1 -16.7484 118.106 -16.0499 117.150 TC -16.0074 117.129 7 8 246
1945060S14122 1945 13 SI WA NOT_NAMED 1945-03-03 11:00:00 TS -16.4104 117.268 main 455 446 P_____P__PO___ SH081945 -16.1499 116.920 -1 -16.8571 117.845 -16.1499 116.920 TC -16.1000 116.900 7 8 247
1945060S14122 1945 13 SI WA NOT_NAMED 1945-03-03 12:00:00 TS -16.4624 117.140 main 448 443 O_____P__OP___ jtwc_sh SH081945 -16.2000 116.800 -1 -16.9104 117.712 -16.2000 116.800 TC -16.1541 116.763 7 8 248
1945060S14122 1945 13 SI WA NOT_NAMED 1945-03-03 15:00:00 TS -16.6189 116.737 main 447 426 P_____P__PP___ SH081945 -16.3500 116.400 -1 -17.0652 117.305 -16.3500 116.400 TC -16.3287 116.346 7 8 248
1945060S14122 1945 13 SI WA NOT_NAMED 1945-03-03 18:00:00 TS -16.7734 116.336 main 427 418 O_____P__OP___ jtwc_sh SH081945 -16.5000 116.000 -1 -17.2105 116.895 -16.5000 116.000 TC -16.5114 115.946 7 8 248
1945060S14122 1945 13 SI WA NOT_NAMED 1945-03-03 21:00:00 TS -16.9225 115.954 main 420 411 P_____P__PP___ SH081945 -16.6500 115.613 -1 -17.3440 116.496 -16.6500 115.613 TC -16.6897 115.593 7 8 247
1945060S14122 1945 13 SI WA NOT_NAMED 1945-03-03 23:00:00 TS -17.0173 115.728 main 416 408 P_____P__PO___ SH081945 -16.7500 115.391 -1 -17.4254 116.242 -16.7500 115.391 TC -16.8000 115.400 7 7 246
1945060S14122 1945 13 SI WA NOT_NAMED 1945-03-04 00:00:00 TS -17.0624 115.628 main 408 408 O_____P__OP___ jtwc_sh SH081945 -16.8000 115.300 -1 -17.4636 116.119 -16.8000 115.300 TC -16.8482 115.322 7 6 244
1945060S14122 1945 13 SI WA NOT_NAMED 1945-03-04 01:00:00 TS -17.1051 115.537 970 bom main 411 404 P_____O__PP___ SH081945 -16.8526 115.222 -1 -17.5000 116.000 970 -16.8526 115.222 TC -16.8944 115.254 7 5 244
1945060S14122 1945 13 SI WA NOT_NAMED 1945-03-04 03:00:00 TS -17.1812 115.376 main 404 401 P_____P__PP___ SH081945 -16.9574 115.105 -1 -17.5390 115.767 -16.9574 115.105 TC -16.9820 115.143 7 5 243
1945060S14122 1945 13 SI WA NOT_NAMED 1945-03-04 06:00:00 TS -17.2816 115.178 main 401 400 O_____P__OP___ jtwc_sh SH081945 -17.1000 115.000 -1 -17.5792 115.428 -17.1000 115.000 TC -17.1045 115.026 7 4 243
1945060S14122 1945 13 SI WA NOT_NAMED 1945-03-04 09:00:00 TS -17.3598 115.015 main 400 400 P_____P__PP___ SH081945 -17.2000 114.942 -1 -17.6071 115.110 -17.2000 114.942 TC -17.2217 114.946 7 3 243
1945060S14122 1945 13 SI WA NOT_NAMED 1945-03-04 11:00:00 TS -17.4106 114.918 main 404 404 P_____P__PO___ SH081945 -17.2636 114.917 -1 -17.6243 114.911 -17.2636 114.917 TC -17.3000 114.900 7 3 241
1945060S14122 1945 13 SI WA NOT_NAMED 1945-03-04 12:00:00 TS -17.4379 114.868 main 404 400 O_____P__OP___ jtwc_sh SH081945 -17.3000 114.900 -1 -17.6336 114.817 -17.3000 114.900 TC -17.3380 114.868 7 4 237
1945060S14122 1945 13 SI WA NOT_NAMED 1945-03-04 15:00:00 TS -17.5392 114.709 main 405 395 P_____P__PP___ SH081945 -17.4500 114.800 -1 -17.6697 114.556 -17.4500 114.800 TC -17.4503 114.784 7 4 234
1945060S14122 1945 13 SI WA NOT_NAMED 1945-03-04 18:00:00 TS -17.6494 114.568 main 401 392 O_____P__OP___ jtwc_sh SH081945 -17.6000 114.700 -1 -17.7264 114.334 -17.6000 114.700 TC -17.5677 114.712 7 3 228
1945060S14122 1945 13 SI WA NOT_NAMED 1945-03-04 21:00:00 TS -17.7514 114.465 main 389 389 P_____P__PP___ SH081945 -17.6925 114.650 -1 -17.8145 114.156 -17.6925 114.650 TC -17.6995 114.645 7 3 220
1945060S14122 1945 13 SI WA NOT_NAMED 1945-03-04 23:00:00 TS -17.8320 114.408 main 394 385 P_____P__PO___ SH081945 -17.7579 114.620 -1 -17.8962 114.066 -17.7579 114.620 TC -17.8000 114.600 7 3 210
1945060S14122 1945 13 SI WA NOT_NAMED 1945-03-05 00:00:00 TS -17.8794 114.380 main 385 385 O_____P__OP___ jtwc_sh SH081945 -17.8000 114.600 -1 -17.9451 114.030 -17.8000 114.600 TC -17.8517 114.569 7 4 209
1945060S14122 1945 13 SI WA NOT_NAMED 1945-03-05 01:00:00 TS -17.9355 114.347 965 bom main 390 371 P_____O__PP___ SH081945 -17.8526 114.570 -1 -18.0000 114.000 965 -17.8526 114.570 TC -17.9057 114.537 7 4 208
1945060S14122 1945 13 SI WA NOT_NAMED 1945-03-05 03:00:00 TS -18.0676 114.281 main 371 358 P_____P__PP___ SH081945 -17.9775 114.500 -1 -18.1510 113.938 -17.9775 114.500 TC -18.0213 114.473 7 5 201
1945060S14122 1945 13 SI WA NOT_NAMED 1945-03-05 06:00:00 TS -18.2932 114.203 main 358 340 O_____P__OP___ jtwc_sh SH081945 -18.2000 114.400 -1 -18.4065 113.890 -18.2000 114.400 TC -18.2150 114.385 7 5 194
1945060S14122 1945 13 SI WA NOT_NAMED 1945-03-05 09:00:00 TS -18.5321 114.166 main 340 321 P_____P__PP___ SH081945 -18.4350 114.335 -1 -18.6732 113.898 -18.4350 114.335 TC -18.4360 114.322 7 5 186
1945060S14122 1945 13 SI WA NOT_NAMED 1945-03-05 11:00:00 TS -18.6982 114.165 main 321 312 P_____P__PO___ SH081945 -18.6083 114.308 -1 -18.8441 113.935 -18.6083 114.308 TC -18.6000 114.300 7 5 0
1945060S14122 1945 13 SI WA NOT_NAMED 1945-03-05 12:00:00 TS -18.7824 114.170 main 312 303 O_____P__OP___ jtwc_sh SH081945 -18.7000 114.300 -1 -18.9244 113.964 -18.7000 114.300 TC -18.6878 114.288 7 5 174
1945060S14122 1945 13 SI WA NOT_NAMED 1945-03-05 13:00:00 TS -18.8653 114.176 bom main 303 294 P_____O__PP___ SH081945 -18.7943 114.286 -1 -19.0000 114.000 -18.7943 114.286 TC -18.7797 114.279 7 5 177
1945060S14122 1945 13 SI WA NOT_NAMED 1945-03-05 15:00:00 TS -19.0291 114.199 main 294 261 P_____P__PP___ SH081945 -18.9925 114.270 -1 -19.1212 114.081 -18.9925 114.270 TC -18.9736 114.273 7 5 165
1945060S14122 1945 13 SI WA NOT_NAMED 1945-03-05 18:00:00 TS -19.2742 114.284 main 261 237 O_____P__OP___ jtwc_sh SH081945 -19.3000 114.300 -1 -19.2777 114.253 -19.3000 114.300 TC -19.2811 114.304 7 5 156
1945060S14122 1945 13 SI WA NOT_NAMED 1945-03-05 21:00:00 TS -19.5128 114.428 main 237 214 P_____P__PP___ SH081945 -19.5999 114.405 -1 -19.4168 114.470 -19.5999 114.405 TC -19.5950 114.397 7 6 147
1945060S14122 1945 13 SI WA NOT_NAMED 1945-03-05 23:00:00 TS -19.6712 114.560 main 207 207 P_____P__PO___ SH081945 -19.8000 114.525 -1 -19.5069 114.631 -19.8000 114.525 TC -19.8000 114.500 7 6 141
1945060S14122 1945 13 SI WA NOT_NAMED 1945-03-06 00:00:00 TS -19.7508 114.636 main 198 191 O_____P__OP___ jtwc_sh SH081945 -19.9000 114.600 -1 -19.5528 114.715 -19.9000 114.600 TC -19.9012 114.564 7 7 138
1945060S14122 1945 13 SI WA NOT_NAMED 1945-03-06 01:00:00 TS -19.8345 114.715 950 bom main 191 161 P_____O__PP___ SH081945 -20.0026 114.683 -1 -19.6000 114.800 950 -20.0026 114.683 TC -20.0023 114.637 7 7 137
1945060S14122 1945 13 SI WA NOT_NAMED 1945-03-06 03:00:00 TS -20.0003 114.881 main 161 130 P_____P__PP___ SH081945 -20.2075 114.877 -1 -19.6819 114.922 -20.2075 114.877 TC -20.2019 114.810 7 7 135
1945060S14122 1945 13 SI WA NOT_NAMED 1945-03-06 06:00:00 TS -20.2430 115.156 main 124 84 O_____P__OP___ jtwc_sh SH081945 -20.5000 115.200 -1 -19.8003 115.106 -20.5000 115.200 TC -20.4883 115.117 7 7 132
1945060S14122 1945 13 SI WA NOT_NAMED 1945-03-06 09:00:00 TS -20.4761 115.435 main 84 64 P_____P__PP___ SH081945 -20.7724 115.493 -1 -19.9264 115.306 -20.7724 115.493 TC -20.7479 115.462 7 7 130
1945060S14122 1945 13 SI WA NOT_NAMED 1945-03-06 11:00:00 TS -20.6208 115.631 main 64 49 P_____P__PO___ SH081945 -20.9307 115.694 -1 -20.0221 115.456 -20.9307 115.694 TC -20.9000 115.700 7 7 127
1945060S14122 1945 13 SI WA NOT_NAMED 1945-03-06 12:00:00 TS -20.6880 115.729 main 49 20 O_____P__OP___ jtwc_sh SH081945 -21.0000 115.800 -1 -20.0750 115.539 -21.0000 115.800 TC -20.9653 115.802 7 7 123
1945060S14122 1945 13 SI WA NOT_NAMED 1945-03-06 15:00:00 TS -20.8710 116.048 main 20 0 P_____P__PP___ SH081945 -21.1650 116.143 -1 -20.2605 115.820 -21.1650 116.143 TC -21.1334 116.114 7 7 120
1945060S14122 1945 13 SI WA NOT_NAMED 1945-03-06 18:00:00 TS -21.0439 116.394 main 0 0 O_____P__OP___ jtwc_sh SH081945 -21.3000 116.500 -1 -20.4974 116.168 -21.3000 116.500 TC -21.2742 116.449 7 8 118
1945060S14122 1945 13 SI WA NOT_NAMED 1945-03-06 21:00:00 TS -21.2294 116.758 945 bom main 0 0 P_____O__PP___ SH081945 -21.4498 116.828 -1 -20.8000 116.600 945 4 -21.4498 116.828 TC -21.4068 116.822 7 8 118
1945060S14122 1945 13 SI WA NOT_NAMED 1945-03-06 23:00:00 TS -21.3610 117.029 main 0 0 P_____P__PO___ SH081945 -21.5499 117.066 -1 -21.0544 116.942 955 -21.5499 117.066 TC -21.5000 117.100 7 9 117
1945060S14122 1945 13 SI WA NOT_NAMED 1945-03-07 00:00:00 TS -21.4292 117.173 main 0 0 O_____P__OP___ jtwc_sh SH081945 -21.6000 117.200 -1 -21.1812 117.121 960 -21.6000 117.200 TC -21.5648 117.246 7 9 116
1945060S14122 1945 13 SI WA NOT_NAMED 1945-03-07 01:00:00 TS -21.4952 117.324 965 bom main 0 0 P_____O__PP___ SH081945 -21.6500 117.344 -1 -21.3000 117.300 965 -21.6500 117.344 TC -21.6318 117.399 7 10 113
1945060S14122 1945 13 SI WA NOT_NAMED 1945-03-07 03:00:00 TS -21.6175 117.642 main 0 0 P_____P__PP___ SH081945 -21.7499 117.663 -1 -21.4995 117.652 -21.7499 117.663 TC -21.7686 117.722 7 10 110
1945060S14122 1945 13 SI WA NOT_NAMED 1945-03-07 06:00:00 TS -21.7748 118.149 main 0 0 O_____P__OP___ jtwc_sh SH081945 -21.9000 118.200 -1 -21.7069 118.160 -21.9000 118.200 TC -21.9650 118.246 7 10 107
1945060S14122 1945 13 SI WA NOT_NAMED 1945-03-07 09:00:00 TS -21.9052 118.683 main 0 0 P_____P__PP___ SH081945 -22.0649 118.785 -1 -21.8176 118.646 -22.0649 118.785 TC -22.1260 118.808 7 10 103
1945060S14122 1945 13 SI WA NOT_NAMED 1945-03-07 11:00:00 TS -21.9677 119.049 main 0 0 P_____P__PO___ SH081945 -22.1614 119.195 -1 -21.8451 118.960 -22.1614 119.195 TC -22.2000 119.200 7 10 97
1945060S14122 1945 13 SI WA NOT_NAMED 1945-03-07 12:00:00 TS -21.9659 119.215 main 0 0 O_____P__OP___ jtwc_sh SH081945 -22.2000 119.400 -1 -21.8467 119.114 -22.2000 119.400 TC -22.2242 119.400 7 9 89
1945060S14122 1945 13 SI WA NOT_NAMED 1945-03-07 15:00:00 TS -21.9516 119.729 main 0 0 P_____P__PP___ SH081945 -22.2704 120.005 -1 -21.8094 119.566 -22.2704 120.005 TC -22.2495 120.012 7 9 82
1945060S14122 1945 13 SI WA NOT_NAMED 1945-03-07 18:00:00 TS -21.8453 120.185 main 0 0 O_____P__OP___ jtwc_sh SH081945 -22.3000 120.600 -1 -21.7210 120.005 -22.3000 120.600 TC -22.2195 120.639 7 8 70
1945060S14122 1945 13 SI WA NOT_NAMED 1945-03-07 21:00:00 TS -21.6661 120.579 main 0 0 ______P___P___ SH081945 -1 -21.5963 120.435 TC -22.1538 121.275 7 8 66
1945060S14122 1945 13 SI WA NOT_NAMED 1945-03-07 23:00:00 TS -21.5709 120.854 main 0 0 ______P___O___ SH081945 -1 -21.5006 120.718 TC -22.1000 121.700 7 7 46
1945060S14122 1945 13 SI WA NOT_NAMED 1945-03-08 00:00:00 TS -21.4338 120.840 main 0 0 ______P_______ -1 -21.4507 120.859 7 7 39
1945060S14122 1945 13 SI WA NOT_NAMED 1945-03-08 01:00:00 NR -21.4000 121.000 995 bom main 0 ______O_______ -1 -21.4000 121.000 995 7 9 77

IBTrACS Databaseについて

本データベースは、米国NOAAが公開する1842年以降の世界の熱帯低気圧のベストトラックデータアーカイブInternational Best Track Archive for Climate Stewardship (IBTrACS)を、ウェブで閲覧しやすい形式に変換したものです。

最終更新日:2021-10-08